Time;durP1;ratioP1;P1;durP2;ratioP2;P2;SDS_P1;SDS_P2;PMS_P1;PMS_P2;Temp;Humidity;BMP_temperature;BMP_pressure;BME280_temperature;BME280_humidity;BME280_pressure;Samples;Min_cycle;Max_cycle;Signal;HPM_P1;HPM_P2
2023/12/21 00:00:20;;;;;;;10.73;3.92;;;9.60;99.90;;;;;;5035262;28;20030;-76
2023/12/21 00:02:46;;;;;;;17.17;3.95;;;9.60;99.90;;;;;;5035731;28;20025;-78
2023/12/21 00:05:11;;;;;;;14.02;3.45;;;9.60;99.90;;;;;;5016768;28;20515;-78
2023/12/21 00:07:37;;;;;;;12.38;3.13;;;9.60;99.90;;;;;;5034583;28;20063;-78
2023/12/21 00:10:03;;;;;;;22.45;4.00;;;9.60;99.90;;;;;;5034591;28;20034;-77
2023/12/21 00:12:28;;;;;;;14.60;3.95;;;9.70;99.90;;;;;;5034750;28;20029;-78
2023/12/21 00:14:54;;;;;;;15.98;4.13;;;9.70;99.90;;;;;;5034780;28;20034;-77
2023/12/21 00:17:20;;;;;;;18.73;4.28;;;9.70;99.90;;;;;;5033491;28;20033;-77
2023/12/21 00:19:45;;;;;;;16.45;3.67;;;9.60;99.90;;;;;;5034784;28;20033;-77
2023/12/21 00:22:11;;;;;;;10.30;3.40;;;9.60;99.90;;;;;;5034432;28;20037;-78
2023/12/21 00:24:36;;;;;;;18.13;3.95;;;9.60;99.90;;;;;;5035107;28;20029;-77
2023/12/21 00:27:02;;;;;;;16.38;4.13;;;9.60;99.90;;;;;;5035385;28;20034;-77
2023/12/21 00:29:28;;;;;;;16.88;4.63;;;9.70;99.90;;;;;;5034777;28;20033;-77
2023/12/21 00:31:53;;;;;;;15.10;4.93;;;9.60;99.90;;;;;;5034537;28;20101;-78
2023/12/21 00:34:19;;;;;;;15.23;4.30;;;9.70;99.90;;;;;;5033478;28;20096;-78
2023/12/21 00:36:47;;;;;;;11.38;3.70;;;9.70;99.90;;;;;;5034441;28;20112;-79
2023/12/21 00:39:12;;;;;;;16.05;4.20;;;9.70;99.90;;;;;;5034634;28;20021;-79
2023/12/21 00:41:38;;;;;;;17.58;3.83;;;9.70;99.90;;;;;;5034111;28;20033;-79
2023/12/21 00:44:03;;;;;;;14.23;3.83;;;9.70;99.90;;;;;;5032748;28;20033;-80
2023/12/21 00:46:29;;;;;;;17.60;4.22;;;9.70;99.90;;;;;;5033221;28;20029;-79
2023/12/21 00:48:55;;;;;;;17.02;5.53;;;9.70;99.90;;;;;;5034495;28;20033;-78
2023/12/21 00:51:20;;;;;;;16.48;4.45;;;9.70;99.90;;;;;;5034166;28;20037;-79
2023/12/21 00:53:46;;;;;;;19.90;5.15;;;9.80;99.90;;;;;;5033312;28;20083;-80
2023/12/21 00:56:11;;;;;;;17.85;4.57;;;9.70;99.90;;;;;;5033913;28;20029;-80
2023/12/21 00:58:37;;;;;;;15.68;4.63;;;9.80;99.90;;;;;;5032759;28;20463;-79
2023/12/21 01:01:03;;;;;;;16.48;4.20;;;9.70;99.90;;;;;;5033832;28;20033;-79
2023/12/21 01:03:29;;;;;;;14.95;4.68;;;9.70;99.90;;;;;;5033580;28;20037;-77
2023/12/21 01:05:55;;;;;;;18.67;4.40;;;9.80;99.90;;;;;;5032565;28;20076;-77
2023/12/21 01:08:20;;;;;;;13.90;3.97;;;9.70;99.90;;;;;;5033763;28;20026;-79
2023/12/21 01:10:46;;;;;;;13.07;4.40;;;9.70;99.90;;;;;;5033726;28;20378;-78
2023/12/21 01:13:11;;;;;;;16.33;4.40;;;9.70;99.90;;;;;;5033946;28;20439;-78
2023/12/21 01:15:37;;;;;;;20.05;5.38;;;9.70;99.90;;;;;;5033914;28;20136;-78
2023/12/21 01:18:03;;;;;;;17.98;4.63;;;9.70;99.90;;;;;;5033345;28;20081;-79
2023/12/21 01:20:28;;;;;;;19.85;5.20;;;9.70;99.90;;;;;;5033319;28;20029;-77
2023/12/21 01:22:54;;;;;;;14.95;5.28;;;9.70;99.90;;;;;;5033241;28;20052;-77
2023/12/21 01:25:19;;;;;;;20.48;4.78;;;9.80;99.90;;;;;;5033130;28;20043;-78
2023/12/21 01:27:45;;;;;;;18.02;4.80;;;9.70;99.90;;;;;;5033991;28;20061;-78
2023/12/21 01:30:11;;;;;;;20.02;5.32;;;9.70;99.90;;;;;;5033350;28;20041;-76
2023/12/21 01:32:37;;;;;;;16.95;5.07;;;9.70;99.90;;;;;;5033619;28;20029;-76
2023/12/21 01:35:02;;;;;;;16.92;4.55;;;9.70;99.90;;;;;;5033362;28;20372;-80
2023/12/21 01:37:28;;;;;;;17.50;4.45;;;9.70;99.90;;;;;;5032165;28;20037;-79
2023/12/21 01:39:53;;;;;;;18.50;4.97;;;9.70;99.90;;;;;;5033522;28;20379;-79
2023/12/21 01:42:19;;;;;;;22.58;5.47;;;9.70;99.90;;;;;;5033286;28;20065;-79
2023/12/21 01:44:45;;;;;;;13.90;4.68;;;9.70;99.90;;;;;;5033282;28;20048;-79
2023/12/21 01:47:12;;;;;;;20.63;4.78;;;9.70;99.90;;;;;;5031720;28;20029;-79
2023/12/21 01:49:38;;;;;;;18.05;4.38;;;9.70;99.90;;;;;;5031944;28;20063;-79
2023/12/21 01:52:05;;;;;;;11.80;3.70;;;9.70;99.90;;;;;;5031613;28;20037;-78
2023/12/21 01:54:31;;;;;;;20.80;4.15;;;9.70;99.90;;;;;;5033076;28;20034;-79
2023/12/21 01:56:57;;;;;;;20.88;4.07;;;9.80;99.90;;;;;;5031881;28;20028;-77
2023/12/21 01:59:22;;;;;;;19.92;3.83;;;9.80;99.90;;;;;;5033395;28;20414;-78
2023/12/21 02:01:48;;;;;;;17.70;3.65;;;9.70;99.90;;;;;;5031545;28;20030;-78
2023/12/21 02:04:14;;;;;;;20.27;4.25;;;9.80;99.90;;;;;;5032988;28;20168;-79
2023/12/21 02:06:40;;;;;;;18.83;3.60;;;9.80;99.90;;;;;;5032845;28;20043;-78
2023/12/21 02:09:06;;;;;;;18.58;3.17;;;9.70;99.90;;;;;;5032972;28;20104;-78
2023/12/21 02:11:32;;;;;;;19.20;4.15;;;9.70;99.90;;;;;;5033123;28;20037;-79
2023/12/21 02:13:58;;;;;;;16.10;2.95;;;9.70;99.90;;;;;;5033118;28;20039;-79
2023/12/21 02:16:30;;;;;;;16.23;3.75;;;9.70;99.90;;;;;;5032923;28;20382;-79
2023/12/21 02:18:56;;;;;;;17.40;3.33;;;9.70;99.90;;;;;;5033314;28;20033;-79
2023/12/21 02:21:22;;;;;;;20.80;3.75;;;9.70;99.90;;;;;;5032716;28;20418;-78
2023/12/21 02:23:50;;;;;;;15.07;3.42;;;9.70;99.90;;;;;;5032761;28;20088;-80
2023/12/21 02:26:18;;;;;;;19.20;3.85;;;9.80;99.90;;;;;;5032817;28;20048;-80
2023/12/21 02:28:44;;;;;;;16.90;3.72;;;9.70;99.90;;;;;;5032821;28;20037;-78
2023/12/21 02:31:09;;;;;;;20.27;3.72;;;9.70;99.90;;;;;;5032669;28;20409;-79
2023/12/21 02:33:35;;;;;;;15.48;3.17;;;9.80;99.90;;;;;;5031785;28;20056;-78
2023/12/21 02:36:03;;;;;;;18.55;4.03;;;9.80;99.90;;;;;;5032973;28;20040;-77
2023/12/21 02:38:28;;;;;;;17.98;3.75;;;9.80;99.90;;;;;;5032995;28;20083;-79
2023/12/21 02:40:54;;;;;;;17.90;3.50;;;9.80;99.90;;;;;;5032716;28;20034;-77
2023/12/21 02:43:19;;;;;;;18.00;3.83;;;9.80;99.90;;;;;;5032595;28;20026;-77
2023/12/21 02:45:45;;;;;;;14.73;3.53;;;9.80;99.90;;;;;;5032436;28;20116;-78
2023/12/21 02:48:10;;;;;;;17.95;4.60;;;9.80;99.90;;;;;;5014604;28;20479;-77
2023/12/21 02:50:36;;;;;;;23.48;3.88;;;9.80;99.90;;;;;;5032782;28;20034;-77
2023/12/21 02:53:02;;;;;;;20.08;4.47;;;9.80;99.90;;;;;;5032628;28;20437;-77
2023/12/21 02:55:27;;;;;;;17.65;3.58;;;9.80;99.90;;;;;;5032871;28;20065;-79
2023/12/21 02:57:53;;;;;;;23.05;4.28;;;9.80;99.90;;;;;;5032556;28;20034;-78
2023/12/21 03:00:19;;;;;;;17.55;3.33;;;9.80;99.90;;;;;;5031358;28;20036;-82
2023/12/21 03:02:44;;;;;;;16.80;3.83;;;9.70;99.90;;;;;;5031964;28;20143;-77
2023/12/21 03:05:10;;;;;;;21.48;4.30;;;9.70;99.90;;;;;;5032447;28;20479;-77
2023/12/21 03:07:36;;;;;;;23.30;4.20;;;9.70;99.90;;;;;;5032940;28;20117;-78
2023/12/21 03:10:02;;;;;;;20.92;3.95;;;9.80;99.90;;;;;;5032218;28;20097;-77
2023/12/21 03:12:28;;;;;;;20.20;3.85;;;9.80;99.90;;;;;;5031883;28;20084;-75
2023/12/21 03:14:53;;;;;;;14.75;2.95;;;9.80;99.90;;;;;;5032477;28;20029;-78
2023/12/21 03:17:19;;;;;;;18.05;3.63;;;9.80;99.90;;;;;;5032637;28;20030;-79
2023/12/21 03:19:45;;;;;;;23.50;3.97;;;9.80;99.90;;;;;;5034752;28;20030;-78
2023/12/21 03:22:10;;;;;;;18.35;3.03;;;9.80;99.90;;;;;;5035857;28;20498;-78
2023/12/21 03:24:36;;;;;;;21.13;3.75;;;9.80;99.90;;;;;;5036019;28;20038;-77
2023/12/21 03:27:03;;;;;;;14.93;3.35;;;9.80;99.90;;;;;;5034387;28;20392;-79
2023/12/21 03:29:28;;;;;;;25.83;3.78;;;9.80;99.90;;;;;;5018044;28;20458;-78
2023/12/21 03:31:56;;;;;;;19.60;3.58;;;9.80;99.90;;;;;;5034515;28;20030;-79
2023/12/21 03:34:22;;;;;;;19.63;4.13;;;9.80;99.90;;;;;;5034465;28;20099;-78
2023/12/21 03:36:48;;;;;;;23.23;3.38;;;9.80;99.90;;;;;;5034132;28;20029;-80
2023/12/21 03:39:13;;;;;;;23.10;4.50;;;9.80;99.90;;;;;;5036303;28;20036;-79
2023/12/21 03:41:39;;;;;;;24.00;5.40;;;9.80;99.90;;;;;;5035780;28;20477;-79
2023/12/21 03:44:04;;;;;;;22.70;4.47;;;9.80;99.90;;;;;;5034060;28;20528;-80
2023/12/21 03:46:30;;;;;;;21.00;5.38;;;9.80;99.90;;;;;;5035949;28;20091;-78
2023/12/21 03:48:56;;;;;;;28.25;5.97;;;9.80;99.90;;;;;;5035145;28;20083;-78
2023/12/21 03:51:22;;;;;;;19.17;4.15;;;9.80;99.90;;;;;;5035490;28;20411;-79
2023/12/21 03:53:47;;;;;;;22.00;4.65;;;9.80;99.90;;;;;;5035312;28;20029;-79
2023/12/21 03:56:13;;;;;;;22.92;3.88;;;9.80;99.90;;;;;;5033932;28;20116;-77
2023/12/21 03:58:38;;;;;;;20.80;4.22;;;9.80;99.90;;;;;;5035829;28;20091;-78
2023/12/21 04:01:04;;;;;;;22.50;4.10;;;9.80;99.90;;;;;;5035197;28;20506;-77
2023/12/21 04:03:30;;;;;;;18.17;4.45;;;9.80;99.90;;;;;;5035492;28;20029;-77
2023/12/21 04:05:56;;;;;;;24.50;4.45;;;9.80;99.90;;;;;;5034768;28;20053;-76
2023/12/21 04:08:22;;;;;;;21.77;4.32;;;9.80;99.90;;;;;;5034926;28;20038;-76
2023/12/21 04:10:48;;;;;;;27.73;4.25;;;9.80;99.90;;;;;;5035230;28;20040;-76
2023/12/21 04:13:14;;;;;;;19.17;4.00;;;9.80;99.90;;;;;;5034977;28;20436;-77
2023/12/21 04:15:40;;;;;;;22.23;4.05;;;9.80;99.90;;;;;;5033595;28;20382;-76
2023/12/21 04:18:05;;;;;;;21.20;3.53;;;9.80;99.90;;;;;;5034810;28;20100;-77
2023/12/21 04:20:31;;;;;;;20.83;3.42;;;9.80;99.90;;;;;;5033328;28;20060;-78
2023/12/21 04:22:56;;;;;;;18.05;3.58;;;9.80;99.90;;;;;;5033689;28;20053;-78
2023/12/21 04:25:22;;;;;;;20.48;4.20;;;9.80;99.90;;;;;;5034695;28;20124;-78
2023/12/21 04:27:48;;;;;;;23.30;3.90;;;9.80;99.90;;;;;;5034686;28;20025;-78
2023/12/21 04:30:14;;;;;;;21.02;3.97;;;9.80;99.90;;;;;;5034413;28;20083;-77
2023/12/21 04:32:41;;;;;;;19.77;4.22;;;9.80;99.90;;;;;;5035026;28;20371;-79
2023/12/21 04:35:08;;;;;;;18.70;4.03;;;9.80;99.90;;;;;;5033060;28;20124;-81
2023/12/21 04:37:33;;;;;;;21.65;3.45;;;9.80;99.90;;;;;;5034407;28;20057;-79
2023/12/21 04:39:59;;;;;;;14.00;3.67;;;9.70;99.90;;;;;;5033244;28;20057;-80
2023/12/21 04:42:25;;;;;;;18.67;3.38;;;9.80;99.90;;;;;;5034649;28;20043;-78
2023/12/21 04:44:50;;;;;;;19.23;3.70;;;9.80;99.90;;;;;;5034071;28;20052;-79
2023/12/21 04:47:16;;;;;;;20.30;3.65;;;9.80;99.90;;;;;;5033038;28;20044;-80
2023/12/21 04:49:41;;;;;;;16.80;3.47;;;9.80;99.90;;;;;;5034663;28;20026;-79
2023/12/21 04:52:07;;;;;;;17.17;3.35;;;9.80;99.90;;;;;;5034324;28;20034;-79
2023/12/21 04:54:32;;;;;;;17.40;3.60;;;9.80;99.90;;;;;;5034758;28;20468;-79
2023/12/21 04:56:58;;;;;;;18.08;3.10;;;9.80;99.90;;;;;;5033926;28;20048;-80
2023/12/21 04:59:24;;;;;;;19.05;3.33;;;9.90;99.90;;;;;;5032423;28;20036;-79
2023/12/21 05:01:50;;;;;;;16.77;3.78;;;9.90;99.90;;;;;;5032337;28;20026;-80
2023/12/21 05:04:16;;;;;;;24.38;4.75;;;9.90;99.90;;;;;;5033192;28;20041;-82
2023/12/21 05:06:41;;;;;;;22.25;3.72;;;9.90;99.90;;;;;;5034015;28;20029;-79
2023/12/21 05:09:07;;;;;;;21.13;3.92;;;9.90;99.90;;;;;;5033679;28;20360;-79
2023/12/21 05:11:33;;;;;;;17.80;3.97;;;9.90;99.90;;;;;;5033583;28;20030;-79
2023/12/21 05:13:58;;;;;;;22.25;3.22;;;10.00;99.90;;;;;;5034288;28;20542;-79
2023/12/21 05:16:24;;;;;;;21.25;4.13;;;9.90;99.90;;;;;;5034605;28;20026;-79
2023/12/21 05:18:50;;;;;;;17.23;3.45;;;10.00;99.90;;;;;;5033564;28;20029;-79
2023/12/21 05:21:15;;;;;;;16.58;3.28;;;10.00;99.90;;;;;;5032255;28;20364;-79
2023/12/21 05:23:41;;;;;;;17.48;3.53;;;10.00;99.90;;;;;;5032108;28;20159;-79
2023/12/21 05:26:14;;;;;;;19.98;3.13;;;10.00;99.90;;;;;;5033650;28;20037;-80
2023/12/21 05:28:41;;;;;;;21.83;4.40;;;10.00;99.90;;;;;;5033211;28;20071;-78
2023/12/21 05:31:08;;;;;;;18.42;3.42;;;10.00;99.90;;;;;;5032948;28;20037;-79
2023/12/21 05:33:33;;;;;;;17.42;3.30;;;10.00;99.90;;;;;;5033065;28;20128;-78
2023/12/21 05:35:59;;;;;;;20.23;3.75;;;10.00;99.90;;;;;;5031936;28;20112;-82
2023/12/21 05:38:25;;;;;;;37.75;6.53;;;10.00;99.90;;;;;;5032957;28;20037;-78
2023/12/21 05:40:50;;;;;;;19.65;3.33;;;10.00;99.90;;;;;;5031388;28;20489;-79
2023/12/21 05:43:17;;;;;;;19.05;3.05;;;9.90;99.90;;;;;;5033384;28;20463;-79
2023/12/21 05:45:43;;;;;;;15.27;3.58;;;10.00;99.90;;;;;;5033072;28;20048;-80
2023/12/21 05:48:08;;;;;;;17.92;3.75;;;10.00;99.90;;;;;;5033070;28;20025;-80
2023/12/21 05:50:34;;;;;;;18.73;3.60;;;9.90;99.90;;;;;;5033250;28;20030;-80
2023/12/21 05:52:59;;;;;;;16.02;4.05;;;10.00;99.90;;;;;;5033368;28;20356;-78
2023/12/21 05:55:25;;;;;;;19.40;4.13;;;9.90;99.90;;;;;;5032738;28;20394;-78
2023/12/21 05:57:51;;;;;;;18.85;3.60;;;9.90;99.90;;;;;;5032152;28;20463;-77
2023/12/21 06:00:17;;;;;;;16.98;3.53;;;9.90;99.90;;;;;;5032895;28;20064;-78
2023/12/21 06:02:42;;;;;;;16.00;3.15;;;9.90;99.90;;;;;;5032907;28;20034;-78
2023/12/21 06:05:08;;;;;;;17.10;3.10;;;9.90;99.90;;;;;;5031730;28;20065;-78
2023/12/21 06:07:34;;;;;;;17.70;3.58;;;9.90;99.90;;;;;;5033336;28;20049;-77
2023/12/21 06:10:00;;;;;;;22.95;3.90;;;9.90;99.90;;;;;;5032924;28;20033;-78
2023/12/21 06:12:25;;;;;;;11.93;3.90;;;9.90;99.90;;;;;;5031826;28;20227;-78
2023/12/21 06:14:51;;;;;;;15.05;3.55;;;9.90;99.90;;;;;;5032728;28;20044;-77
2023/12/21 06:17:17;;;;;;;10.77;3.63;;;9.90;99.90;;;;;;5032437;28;20040;-77
2023/12/21 06:19:44;;;;;;;14.57;3.50;;;9.90;99.90;;;;;;5032746;28;20030;-77
2023/12/21 06:22:09;;;;;;;12.07;3.60;;;9.90;99.90;;;;;;5033052;28;20044;-76
2023/12/21 06:24:35;;;;;;;16.00;3.53;;;9.90;99.90;;;;;;5033128;28;20041;-77
2023/12/21 06:27:01;;;;;;;19.27;3.83;;;10.00;99.90;;;;;;5032700;28;20034;-77
2023/12/21 06:29:26;;;;;;;13.23;4.00;;;10.00;99.90;;;;;;5031628;28;20057;-77
2023/12/21 06:31:52;;;;;;;11.70;3.38;;;10.00;99.90;;;;;;5032731;28;20075;-77
2023/12/21 06:34:18;;;;;;;12.75;3.85;;;10.00;99.90;;;;;;5032583;28;20029;-76
2023/12/21 06:36:44;;;;;;;14.60;3.88;;;10.00;99.90;;;;;;5032255;28;20116;-76
2023/12/21 06:39:09;;;;;;;12.05;3.78;;;10.00;99.90;;;;;;5032470;28;20104;-77
2023/12/21 06:41:35;;;;;;;9.48;3.33;;;10.00;99.90;;;;;;5032527;28;20472;-77
2023/12/21 06:44:01;;;;;;;15.35;4.10;;;10.00;99.90;;;;;;5032418;28;20043;-76
2023/12/21 06:46:26;;;;;;;12.38;3.55;;;10.00;99.90;;;;;;5032621;28;20037;-76
2023/12/21 06:48:52;;;;;;;13.80;3.28;;;10.00;99.90;;;;;;5032703;28;20082;-77
2023/12/21 06:51:18;;;;;;;15.18;3.38;;;10.00;99.90;;;;;;5032077;28;20052;-78
2023/12/21 06:53:43;;;;;;;14.50;3.97;;;10.00;99.90;;;;;;5034279;28;20483;-77
2023/12/21 06:56:09;;;;;;;10.27;2.90;;;10.00;99.90;;;;;;5036221;28;20025;-77
2023/12/21 06:58:35;;;;;;;13.63;3.67;;;10.00;99.90;;;;;;5036119;28;20025;-77
2023/12/21 07:01:01;;;;;;;13.25;3.42;;;10.00;99.90;;;;;;5036185;28;20037;-77
2023/12/21 07:03:26;;;;;;;13.52;2.95;;;10.00;99.90;;;;;;5036106;28;20033;-77
2023/12/21 07:05:52;;;;;;;16.15;3.53;;;10.00;99.90;;;;;;5035779;28;20061;-77
2023/12/21 07:08:19;;;;;;;12.15;4.22;;;10.00;99.90;;;;;;5035657;28;20116;-78
2023/12/21 07:10:45;;;;;;;16.42;3.53;;;10.00;99.90;;;;;;5035955;28;20029;-77
2023/12/21 07:13:11;;;;;;;14.23;4.03;;;10.10;99.90;;;;;;5018078;28;20395;-77
2023/12/21 07:15:37;;;;;;;13.65;3.28;;;10.00;99.90;;;;;;5035803;28;20033;-78
2023/12/21 07:18:03;;;;;;;13.55;3.05;;;10.00;99.90;;;;;;5035898;28;20434;-78
2023/12/21 07:20:30;;;;;;;17.70;3.38;;;10.00;99.90;;;;;;5035648;28;20461;-77
2023/12/21 07:22:56;;;;;;;15.82;3.10;;;10.00;99.90;;;;;;5034721;28;20071;-77
2023/12/21 07:25:22;;;;;;;14.88;3.33;;;10.00;99.90;;;;;;5036172;28;20069;-77
2023/12/21 07:27:48;;;;;;;15.90;2.63;;;10.00;99.90;;;;;;5035202;28;20034;-77
2023/12/21 07:30:14;;;;;;;16.98;2.58;;;10.00;99.90;;;;;;5035622;28;20041;-78
2023/12/21 07:32:39;;;;;;;16.45;2.92;;;10.00;99.90;;;;;;5018013;28;20029;-78
2023/12/21 07:35:05;;;;;;;16.63;2.70;;;10.00;99.90;;;;;;5035336;28;20090;-78
2023/12/21 07:37:31;;;;;;;12.52;2.10;;;10.00;99.90;;;;;;5034937;28;20040;-77
2023/12/21 07:39:57;;;;;;;17.95;2.33;;;10.00;99.90;;;;;;5036037;28;20033;-78
2023/12/21 07:42:23;;;;;;;16.30;2.40;;;10.00;99.90;;;;;;5035283;28;20030;-77
2023/12/21 07:44:48;;;;;;;14.35;2.08;;;10.00;99.90;;;;;;5035149;28;20037;-79
2023/12/21 07:47:14;;;;;;;16.95;2.45;;;10.00;99.90;;;;;;5035576;28;20029;-77
2023/12/21 07:49:40;;;;;;;17.67;2.38;;;10.00;99.90;;;;;;5017573;28;20033;-76
2023/12/21 07:52:05;;;;;;;16.27;3.10;;;10.00;99.90;;;;;;5034144;28;20095;-79
2023/12/21 07:54:31;;;;;;;15.40;2.17;;;10.00;99.90;;;;;;5035685;28;20328;-76
2023/12/21 07:56:56;;;;;;;8.93;2.00;;;10.00;99.90;;;;;;5035983;28;20435;-78
2023/12/21 07:59:24;;;;;;;15.57;2.40;;;10.00;99.90;;;;;;5035283;28;20418;-77
2023/12/21 08:01:49;;;;;;;10.73;2.25;;;10.00;99.90;;;;;;5035245;28;20391;-81
2023/12/21 08:04:16;;;;;;;16.75;2.80;;;10.00;99.90;;;;;;5034602;28;20044;-76
2023/12/21 08:06:41;;;;;;;11.85;2.38;;;10.00;99.90;;;;;;5035516;28;20117;-74
2023/12/21 08:09:07;;;;;;;14.02;2.15;;;10.00;99.90;;;;;;5035676;28;20104;-77
2023/12/21 08:11:33;;;;;;;13.57;2.42;;;10.00;99.90;;;;;;5035420;28;20121;-73
2023/12/21 08:13:59;;;;;;;18.08;1.88;;;10.00;99.90;;;;;;5035195;28;20087;-74
2023/12/21 08:16:24;;;;;;;13.18;2.70;;;10.10;99.90;;;;;;5035240;28;20095;-74
2023/12/21 08:18:50;;;;;;;12.10;1.85;;;10.10;99.90;;;;;;5033591;28;20032;-74
2023/12/21 08:21:15;;;;;;;12.18;2.20;;;10.10;99.90;;;;;;5035051;28;20029;-74
2023/12/21 08:23:41;;;;;;;14.65;2.25;;;10.10;99.90;;;;;;5034955;28;20037;-74
2023/12/21 08:26:08;;;;;;;7.05;1.40;;;10.10;99.90;;;;;;5035080;28;20037;-74
2023/12/21 08:28:34;;;;;;;13.80;1.52;;;10.10;99.90;;;;;;5034658;28;20100;-75
2023/12/21 08:31:00;;;;;;;10.55;1.40;;;10.20;99.90;;;;;;5034449;28;20116;-74
2023/12/21 08:33:26;;;;;;;9.80;1.60;;;10.10;99.90;;;;;;5034335;28;20474;-73
2023/12/21 08:35:52;;;;;;;6.18;1.40;;;10.20;99.90;;;;;;5034332;28;20033;-74
2023/12/21 08:38:18;;;;;;;6.35;1.10;;;10.20;99.90;;;;;;5034563;28;20025;-74
2023/12/21 08:40:45;;;;;;;7.22;1.20;;;10.20;99.90;;;;;;5034502;28;20044;-75
2023/12/21 08:43:11;;;;;;;7.13;1.30;;;10.20;99.90;;;;;;5033366;28;20030;-73
2023/12/21 08:45:38;;;;;;;11.07;1.50;;;10.20;99.90;;;;;;5034256;28;20060;-77
2023/12/21 08:48:04;;;;;;;7.75;1.27;;;10.20;99.90;;;;;;5033188;28;20057;-74
2023/12/21 08:50:29;;;;;;;8.75;1.08;;;10.20;99.90;;;;;;5034122;28;20156;-75
2023/12/21 08:52:55;;;;;;;6.78;1.25;;;10.20;99.90;;;;;;5035043;28;20464;-75
2023/12/21 08:55:20;;;;;;;6.28;1.90;;;10.20;99.90;;;;;;5034246;28;20037;-75
2023/12/21 08:57:46;;;;;;;10.02;1.70;;;10.20;99.90;;;;;;5034425;28;20033;-74
2023/12/21 09:00:13;;;;;;;8.00;1.52;;;10.30;99.90;;;;;;5033986;28;20443;-75
2023/12/21 09:02:39;;;;;;;9.55;1.23;;;10.20;99.90;;;;;;5034468;28;20029;-74
2023/12/21 09:05:06;;;;;;;7.55;1.00;;;10.20;99.90;;;;;;5034607;28;20074;-78
2023/12/21 09:07:32;;;;;;;11.10;1.45;;;10.30;99.90;;;;;;5038256;28;20040;-78
2023/12/21 09:09:58;;;;;;;6.32;1.65;;;10.30;99.90;;;;;;5035884;28;20025;-77
2023/12/21 09:12:24;;;;;;;7.97;1.23;;;10.30;99.90;;;;;;5034544;28;20087;-78
2023/12/21 09:14:49;;;;;;;9.00;1.42;;;10.30;99.90;;;;;;5033749;28;20033;-80
2023/12/21 09:17:15;;;;;;;11.68;1.55;;;10.30;99.90;;;;;;5033380;28;20044;-78
2023/12/21 09:19:41;;;;;;;9.18;1.35;;;10.30;99.90;;;;;;5034752;28;20025;-79
2023/12/21 09:22:06;;;;;;;12.43;1.58;;;10.40;99.90;;;;;;5034274;28;20053;-76
2023/12/21 09:24:32;;;;;;;8.20;1.33;;;10.40;99.90;;;;;;5034056;28;20033;-73
2023/12/21 09:26:58;;;;;;;8.55;1.40;;;10.40;99.90;;;;;;5032413;28;20029;-73
2023/12/21 09:29:24;;;;;;;11.02;1.27;;;10.50;99.90;;;;;;5033760;28;20029;-73
2023/12/21 09:31:49;;;;;;;11.10;1.27;;;10.50;99.90;;;;;;5033990;28;20033;-74
2023/12/21 09:34:15;;;;;;;11.55;0.73;;;10.50;99.90;;;;;;5034000;28;20467;-74
2023/12/21 09:36:41;;;;;;;12.25;1.38;;;10.50;99.90;;;;;;5033777;28;20022;-73
2023/12/21 09:39:07;;;;;;;11.35;1.25;;;10.50;99.90;;;;;;5033706;28;20040;-73
2023/12/21 09:41:33;;;;;;;6.88;0.60;;;10.60;99.90;;;;;;5033674;28;20030;-73
2023/12/21 09:44:01;;;;;;;10.90;0.85;;;10.60;99.90;;;;;;5034020;28;20188;-73
2023/12/21 09:46:28;;;;;;;9.82;1.08;;;10.60;99.90;;;;;;5033412;28;20037;-73
2023/12/21 09:48:54;;;;;;;8.10;0.65;;;10.60;99.90;;;;;;5033542;28;20117;-73
2023/12/21 09:51:20;;;;;;;7.53;1.02;;;10.70;99.90;;;;;;5032284;28;20411;-73
2023/12/21 09:53:46;;;;;;;9.43;0.75;;;10.70;99.90;;;;;;5033395;28;20116;-73
2023/12/21 09:56:14;;;;;;;10.88;1.60;;;10.70;99.90;;;;;;5033721;28;20047;-73
2023/12/21 09:58:40;;;;;;;11.88;1.05;;;10.70;99.90;;;;;;5033026;28;20494;-73
2023/12/21 10:01:05;;;;;;;8.13;1.48;;;10.70;99.90;;;;;;5032999;28;20034;-74
2023/12/21 10:03:32;;;;;;;13.43;1.45;;;10.80;99.90;;;;;;5033466;28;20493;-73
2023/12/21 10:05:58;;;;;;;11.20;1.15;;;10.80;99.90;;;;;;5032362;28;20118;-74
2023/12/21 10:08:24;;;;;;;8.65;0.65;;;10.80;99.90;;;;;;5032944;28;20443;-74
2023/12/21 10:10:49;;;;;;;7.63;1.90;;;10.80;99.90;;;;;;5031252;28;20139;-74
2023/12/21 10:13:16;;;;;;;8.80;0.82;;;10.90;99.90;;;;;;5032916;28;20125;-74
2023/12/21 10:15:42;;;;;;;9.68;0.82;;;10.90;99.90;;;;;;5032761;28;20112;-73
2023/12/21 10:18:09;;;;;;;9.43;1.02;;;10.90;99.90;;;;;;5032806;28;20034;-73
2023/12/21 10:20:35;;;;;;;5.50;0.43;;;11.00;99.90;;;;;;5032905;28;20199;-75
2023/12/21 10:23:01;;;;;;;8.80;0.70;;;11.00;99.90;;;;;;5033401;28;20037;-76
2023/12/21 10:25:27;;;;;;;7.90;1.10;;;11.00;99.90;;;;;;5033252;28;20038;-75
2023/12/21 10:27:54;;;;;;;7.18;0.57;;;11.00;99.90;;;;;;5035383;28;20030;-74
2023/12/21 10:30:22;;;;;;;9.23;0.60;;;11.00;99.90;;;;;;5037263;28;20026;-72
2023/12/21 10:32:51;;;;;;;6.75;0.65;;;11.00;99.90;;;;;;5037026;28;20026;-75
2023/12/21 10:35:17;;;;;;;3.72;0.50;;;11.10;99.90;;;;;;5036494;28;20044;-75
2023/12/21 10:37:43;;;;;;;5.38;0.77;;;11.10;99.90;;;;;;5036437;28;20037;-75
2023/12/21 10:40:13;;;;;;;8.93;0.95;;;11.10;99.90;;;;;;5035633;28;20029;-73
2023/12/21 10:42:43;;;;;;;5.90;0.60;;;11.10;99.90;;;;;;5036671;28;20026;-74
2023/12/21 10:45:11;;;;;;;8.73;0.65;;;11.10;99.90;;;;;;5036710;28;20041;-74
2023/12/21 10:47:37;;;;;;;7.28;1.15;;;11.20;99.90;;;;;;5036435;28;20033;-75
2023/12/21 10:50:03;;;;;;;8.48;0.40;;;11.20;99.90;;;;;;5037288;28;20034;-76
2023/12/21 10:52:30;;;;;;;7.10;0.55;;;11.20;99.90;;;;;;5035679;28;20036;-75
2023/12/21 10:54:56;;;;;;;4.82;0.75;;;11.20;99.90;;;;;;5036666;28;20483;-72
2023/12/21 10:57:23;;;;;;;8.00;0.75;;;11.20;99.90;;;;;;5036920;28;20091;-74
2023/12/21 10:59:50;;;;;;;4.93;0.93;;;11.30;99.90;;;;;;5019037;28;20051;-75
2023/12/21 11:02:18;;;;;;;4.60;0.60;;;11.30;99.90;;;;;;5035186;28;20470;-72
2023/12/21 11:04:45;;;;;;;6.47;0.80;;;11.40;99.90;;;;;;5035308;28;20404;-72
2023/12/21 11:07:12;;;;;;;5.72;0.60;;;11.40;99.90;;;;;;5036293;28;20467;-73
2023/12/21 11:09:40;;;;;;;10.82;0.57;;;11.40;99.90;;;;;;5036477;28;20088;-73
2023/12/21 11:12:08;;;;;;;4.72;0.45;;;11.40;99.90;;;;;;5036098;28;20084;-74
2023/12/21 11:14:34;;;;;;;5.55;0.80;;;11.40;99.90;;;;;;5036017;28;20395;-72
2023/12/21 11:17:03;;;;;;;12.27;1.58;;;11.40;99.90;;;;;;5035925;28;20120;-71
2023/12/21 11:19:38;;;;;;;7.93;0.68;;;11.40;99.90;;;;;;5035774;28;20037;-73
2023/12/21 11:22:04;;;;;;;6.00;0.32;;;11.50;99.90;;;;;;5035995;28;20022;-74
2023/12/21 11:24:30;;;;;;;8.95;0.50;;;11.40;99.90;;;;;;5034963;28;20037;-78
2023/12/21 11:26:59;;;;;;;6.53;0.50;;;11.40;99.90;;;;;;5036094;28;20184;-74
2023/12/21 11:29:27;;;;;;;4.18;0.43;;;11.40;99.90;;;;;;5034735;28;20033;-72
2023/12/21 11:31:55;;;;;;;7.95;0.98;;;11.40;99.90;;;;;;5035789;28;20112;-74
2023/12/21 11:34:33;;;;;;;6.93;0.60;;;11.40;99.90;;;;;;5036263;28;20037;-77
2023/12/21 11:37:35;;;;;;;5.45;0.50;;;11.40;99.90;;;;;;5035495;28;20057;-74
2023/12/21 11:40:04;;;;;;;7.25;0.50;;;11.40;99.90;;;;;;5035459;28;20482;-75
2023/12/21 11:42:37;;;;;;;4.60;0.55;;;11.40;99.90;;;;;;5034204;28;20463;-74
2023/12/21 11:45:06;;;;;;;6.38;1.00;;;11.40;99.90;;;;;;5035467;28;20124;-75
2023/12/21 11:47:32;;;;;;;6.75;0.40;;;11.40;99.90;;;;;;5035561;28;20033;-72
2023/12/21 11:50:09;;;;;;;3.95;0.63;;;11.40;99.90;;;;;;5035238;28;20029;-72
2023/12/21 11:52:35;;;;;;;5.25;0.50;;;11.50;99.90;;;;;;5035672;28;20029;-73
2023/12/21 11:55:01;;;;;;;5.30;0.55;;;11.50;99.90;;;;;;5035141;28;20041;-73
2023/12/21 11:57:32;;;;;;;6.88;0.70;;;11.50;99.90;;;;;;5035707;28;20033;-73
2023/12/21 12:00:17;;;;;;;6.45;0.40;;;11.50;99.90;;;;;;5035323;28;20056;-73
2023/12/21 12:02:46;;;;;;;5.68;0.90;;;11.50;99.90;;;;;;5035228;28;20084;-74
2023/12/21 12:05:24;;;;;;;6.72;0.70;;;11.50;99.90;;;;;;5035197;28;20096;-73
2023/12/21 12:07:50;;;;;;;5.60;0.75;;;11.50;99.90;;;;;;5034710;28;20030;-74
2023/12/21 12:10:18;;;;;;;6.93;0.65;;;11.50;99.90;;;;;;5034722;28;20030;-74
2023/12/21 12:12:44;;;;;;;5.20;0.60;;;11.50;99.90;;;;;;5035329;28;20030;-74
2023/12/21 12:15:10;;;;;;;6.78;0.70;;;11.50;99.90;;;;;;5035013;28;20439;-74
2023/12/21 12:17:42;;;;;;;10.13;0.60;;;11.50;99.90;;;;;;5034185;28;20061;-74
2023/12/21 12:20:09;;;;;;;5.37;0.60;;;11.50;99.90;;;;;;5035268;28;20094;-73
2023/12/21 12:22:36;;;;;;;6.20;0.63;;;11.50;99.90;;;;;;5034092;28;20021;-72
2023/12/21 12:25:05;;;;;;;5.82;0.73;;;11.60;99.90;;;;;;5034768;28;20045;-74
2023/12/21 12:27:31;;;;;;;6.55;0.60;;;11.60;99.90;;;;;;5033534;28;20060;-76
2023/12/21 12:29:57;;;;;;;6.53;0.82;;;11.60;99.90;;;;;;5035378;28;20029;-77
2023/12/21 12:32:23;;;;;;;4.25;0.80;;;11.70;99.90;;;;;;5035019;28;20033;-77
2023/12/21 12:34:49;;;;;;;4.28;0.45;;;11.70;99.90;;;;;;5035158;28;20033;-77
2023/12/21 12:37:18;;;;;;;8.07;0.80;;;11.70;99.90;;;;;;5034541;28;20037;-76